Skip Navigation Links
NOAA logo - Click to go to the NOAA homepage
NOAA's National Weather Service
Alaska Aviation Weather Unit
  NWS logo - Click to go to the NWS homepage
Left Navbar Graphic     09 AKDT = 17 GMT

   
NOAA is celebrating 200 years of science, service, and stewardship. Visit the NOAA 200th celebration Web site to learn more.
USA.gov is the U.S. Government's official Web portal to all Federal, state and local government Web resources and services.
Facebook
NWS on Facebook

Important Change Regarding the AAWU Web Presence

 

Over the last several months, the AAWU has been working to navigate its webpages to a nationally supported server. Security, as well as other needs, have necessitated the change.  In the process, we have made an effort to enhance the functionality of our website, as well as some of our products. As of June 20, 2017, aawu.arh.noaa.gov will be discontinued. The new AAWU web address is weather.gov/aawu. It is now live and will run in-parallel with the old site until it is discontinued. Please send any feedback or questions regarding the new webpages to nws.ar.aawu.webauthors@noaa.gov.  Thank you for your patience during this time of transition.
AAWU Home :: Display TAF Add Bookmark
TAF CYXY 291138Z 2912/3012 20005KT P6SM BKN160
     FM291600 16015G25KT P6SM FEW050 SCT120
     FM300500 16008KT P6SM FEW240 RMK
      NXT FCST BY 291800Z=

METAR CYXY 291100Z 19005KT 30SM OVC170 12/M03 A2993 RMK AC8 SLP147 DENSITY ALT 2500FT= METAR CYXY 291200Z 18007KT 40SM FEW140 BKN200 11/M02 A2992 RMK AC2CI5 SLP147= METAR CYXY 291300Z 18009KT 40SM FEW130 BKN200 11/M02 A2992 RMK AC2CI5 SLP144= METAR CYXY 291400Z 17012KT 40SM FEW130 BKN200 13/M02 A2991 RMK AC2CI5 SLP140 DENSITY ALT 2600FT= METAR CYXY 291500Z 15011KT 40SM SCT160 BKN210 14/M01 A2991 RMK AC3CI4 SLP138 DENSITY ALT 2700FT= METAR CYXY 291600Z 17009KT 40SM FEW050 SCT140 BKN220 15/00 A2990 RMK CF1AC3CI3 SLP136 DENSITY ALT 2800FT=
 Alaska TAF Map

NOAA's National Weather Service
Alaska Aviation Weather Unit
6930 Sand Lake Road
Anchorage, AK 99502-1845
Disclaimer
Credits
Glossary
Privacy Policy
About Us
Career Opportunities
Contact AAWU Internet Services Site last modified: April, 17th 2012